sensor_id;sensor_type;location;lat;lon;timestamp;P1;durP1;ratioP1;P2;durP2;ratioP2
71046;SDS011;58703;48.978;8.982;2023-03-05T00:01:09;27.55;;;11.00;;
71046;SDS011;58703;48.978;8.982;2023-03-05T00:03:36;28.00;;;10.85;;
71046;SDS011;58703;48.978;8.982;2023-03-05T00:06:02;30.92;;;11.10;;
71046;SDS011;58703;48.978;8.982;2023-03-05T00:08:28;34.10;;;13.63;;
71046;SDS011;58703;48.978;8.982;2023-03-05T00:10:58;29.80;;;11.60;;
71046;SDS011;58703;48.978;8.982;2023-03-05T00:13:25;30.85;;;10.77;;
71046;SDS011;58703;48.978;8.982;2023-03-05T00:15:51;29.10;;;10.47;;
71046;SDS011;58703;48.978;8.982;2023-03-05T00:18:17;29.00;;;10.13;;
71046;SDS011;58703;48.978;8.982;2023-03-05T00:20:42;27.33;;;11.25;;
71046;SDS011;58703;48.978;8.982;2023-03-05T00:23:08;32.93;;;10.43;;
71046;SDS011;58703;48.978;8.982;2023-03-05T00:25:34;25.70;;;11.57;;
71046;SDS011;58703;48.978;8.982;2023-03-05T00:28:01;37.70;;;15.02;;
71046;SDS011;58703;48.978;8.982;2023-03-05T00:30:26;33.55;;;11.85;;
71046;SDS011;58703;48.978;8.982;2023-03-05T00:32:52;31.13;;;10.87;;
71046;SDS011;58703;48.978;8.982;2023-03-05T00:35:18;27.43;;;10.93;;
71046;SDS011;58703;48.978;8.982;2023-03-05T00:37:43;29.00;;;10.25;;
71046;SDS011;58703;48.978;8.982;2023-03-05T00:40:09;26.80;;;9.73;;
71046;SDS011;58703;48.978;8.982;2023-03-05T00:42:35;26.95;;;9.50;;
71046;SDS011;58703;48.978;8.982;2023-03-05T00:45:05;26.13;;;9.43;;
71046;SDS011;58703;48.978;8.982;2023-03-05T00:47:32;28.75;;;10.07;;
71046;SDS011;58703;48.978;8.982;2023-03-05T00:49:58;27.67;;;9.70;;
71046;SDS011;58703;48.978;8.982;2023-03-05T00:52:24;29.60;;;10.77;;
71046;SDS011;58703;48.978;8.982;2023-03-05T00:54:49;30.03;;;10.23;;
71046;SDS011;58703;48.978;8.982;2023-03-05T00:57:15;33.00;;;11.20;;
71046;SDS011;58703;48.978;8.982;2023-03-05T00:59:41;29.03;;;9.63;;
71046;SDS011;58703;48.978;8.982;2023-03-05T01:02:06;24.37;;;9.90;;
71046;SDS011;58703;48.978;8.982;2023-03-05T01:04:32;25.75;;;9.50;;
71046;SDS011;58703;48.978;8.982;2023-03-05T01:06:59;25.75;;;9.73;;
71046;SDS011;58703;48.978;8.982;2023-03-05T01:09:24;30.03;;;9.93;;
71046;SDS011;58703;48.978;8.982;2023-03-05T01:11:50;26.30;;;9.73;;
71046;SDS011;58703;48.978;8.982;2023-03-05T01:14:17;26.88;;;9.60;;
71046;SDS011;58703;48.978;8.982;2023-03-05T01:16:43;25.80;;;9.05;;
71046;SDS011;58703;48.978;8.982;2023-03-05T01:19:08;24.03;;;9.00;;
71046;SDS011;58703;48.978;8.982;2023-03-05T01:21:35;26.65;;;8.75;;
71046;SDS011;58703;48.978;8.982;2023-03-05T01:24:02;26.25;;;9.45;;
71046;SDS011;58703;48.978;8.982;2023-03-05T01:26:30;24.75;;;8.80;;
71046;SDS011;58703;48.978;8.982;2023-03-05T01:28:55;27.77;;;10.40;;
71046;SDS011;58703;48.978;8.982;2023-03-05T01:31:23;28.63;;;9.27;;
71046;SDS011;58703;48.978;8.982;2023-03-05T01:33:50;29.67;;;10.10;;
71046;SDS011;58703;48.978;8.982;2023-03-05T01:36:17;28.25;;;8.90;;
71046;SDS011;58703;48.978;8.982;2023-03-05T01:38:43;23.67;;;8.80;;
71046;SDS011;58703;48.978;8.982;2023-03-05T01:41:11;25.77;;;8.98;;
71046;SDS011;58703;48.978;8.982;2023-03-05T01:43:38;24.77;;;8.65;;
71046;SDS011;58703;48.978;8.982;2023-03-05T01:51:39;29.33;;;10.30;;
71046;SDS011;58703;48.978;8.982;2023-03-05T01:54:09;25.37;;;8.50;;
71046;SDS011;58703;48.978;8.982;2023-03-05T01:56:37;26.83;;;9.00;;
71046;SDS011;58703;48.978;8.982;2023-03-05T01:59:04;26.23;;;8.52;;
71046;SDS011;58703;48.978;8.982;2023-03-05T02:01:31;21.25;;;7.20;;
71046;SDS011;58703;48.978;8.982;2023-03-05T02:04:00;22.33;;;7.95;;
71046;SDS011;58703;48.978;8.982;2023-03-05T02:06:26;24.75;;;7.57;;
71046;SDS011;58703;48.978;8.982;2023-03-05T02:08:52;24.55;;;8.60;;
71046;SDS011;58703;48.978;8.982;2023-03-05T02:11:18;26.60;;;8.80;;
71046;SDS011;58703;48.978;8.982;2023-03-05T02:13:44;22.48;;;8.48;;
71046;SDS011;58703;48.978;8.982;2023-03-05T02:16:10;19.93;;;7.70;;
71046;SDS011;58703;48.978;8.982;2023-03-05T02:18:35;33.97;;;10.47;;
71046;SDS011;58703;48.978;8.982;2023-03-05T02:21:07;22.93;;;8.20;;
71046;SDS011;58703;48.978;8.982;2023-03-05T02:23:34;20.38;;;8.15;;
71046;SDS011;58703;48.978;8.982;2023-03-05T02:26:02;22.50;;;8.55;;
71046;SDS011;58703;48.978;8.982;2023-03-05T02:31:19;21.07;;;7.30;;
71046;SDS011;58703;48.978;8.982;2023-03-05T02:33:46;29.27;;;8.70;;
71046;SDS011;58703;48.978;8.982;2023-03-05T02:36:13;22.92;;;7.72;;
71046;SDS011;58703;48.978;8.982;2023-03-05T02:38:40;21.20;;;7.03;;
71046;SDS011;58703;48.978;8.982;2023-03-05T02:41:06;20.92;;;7.38;;
71046;SDS011;58703;48.978;8.982;2023-03-05T02:43:32;24.20;;;8.10;;
71046;SDS011;58703;48.978;8.982;2023-03-05T02:45:58;25.87;;;7.67;;
71046;SDS011;58703;48.978;8.982;2023-03-05T02:48:23;23.30;;;8.05;;
71046;SDS011;58703;48.978;8.982;2023-03-05T02:50:49;24.40;;;7.60;;
71046;SDS011;58703;48.978;8.982;2023-03-05T02:53:15;23.88;;;7.28;;
71046;SDS011;58703;48.978;8.982;2023-03-05T02:55:40;21.57;;;7.80;;
71046;SDS011;58703;48.978;8.982;2023-03-05T02:58:06;24.83;;;7.40;;
71046;SDS011;58703;48.978;8.982;2023-03-05T03:00:31;21.95;;;6.88;;
71046;SDS011;58703;48.978;8.982;2023-03-05T03:02:57;23.27;;;7.70;;
71046;SDS011;58703;48.978;8.982;2023-03-05T03:05:22;21.93;;;7.10;;
71046;SDS011;58703;48.978;8.982;2023-03-05T03:07:49;25.63;;;8.07;;
71046;SDS011;58703;48.978;8.982;2023-03-05T03:10:14;24.13;;;7.40;;
71046;SDS011;58703;48.978;8.982;2023-03-05T03:12:40;22.30;;;7.10;;
71046;SDS011;58703;48.978;8.982;2023-03-05T03:15:07;20.23;;;6.97;;
71046;SDS011;58703;48.978;8.982;2023-03-05T03:17:35;24.17;;;6.80;;
71046;SDS011;58703;48.978;8.982;2023-03-05T03:20:02;21.88;;;7.07;;
71046;SDS011;58703;48.978;8.982;2023-03-05T03:22:29;25.93;;;7.43;;
71046;SDS011;58703;48.978;8.982;2023-03-05T03:24:55;22.73;;;7.55;;
71046;SDS011;58703;48.978;8.982;2023-03-05T03:27:21;22.00;;;7.23;;
71046;SDS011;58703;48.978;8.982;2023-03-05T03:29:47;20.38;;;7.40;;
71046;SDS011;58703;48.978;8.982;2023-03-05T03:32:13;23.60;;;8.67;;
71046;SDS011;58703;48.978;8.982;2023-03-05T03:34:38;23.20;;;7.28;;
71046;SDS011;58703;48.978;8.982;2023-03-05T03:37:04;20.23;;;7.20;;
71046;SDS011;58703;48.978;8.982;2023-03-05T03:39:30;21.15;;;7.18;;
71046;SDS011;58703;48.978;8.982;2023-03-05T03:41:56;20.80;;;7.47;;
71046;SDS011;58703;48.978;8.982;2023-03-05T03:44:22;21.15;;;7.38;;
71046;SDS011;58703;48.978;8.982;2023-03-05T03:46:48;21.70;;;7.82;;
71046;SDS011;58703;48.978;8.982;2023-03-05T03:49:15;19.73;;;6.60;;
71046;SDS011;58703;48.978;8.982;2023-03-05T03:51:46;19.63;;;6.80;;
71046;SDS011;58703;48.978;8.982;2023-03-05T03:54:12;22.90;;;7.32;;
71046;SDS011;58703;48.978;8.982;2023-03-05T03:56:39;17.45;;;6.15;;
71046;SDS011;58703;48.978;8.982;2023-03-05T03:59:04;19.90;;;6.47;;
71046;SDS011;58703;48.978;8.982;2023-03-05T04:01:30;21.40;;;7.67;;
71046;SDS011;58703;48.978;8.982;2023-03-05T04:03:55;19.30;;;6.57;;
71046;SDS011;58703;48.978;8.982;2023-03-05T04:06:21;25.07;;;6.93;;
71046;SDS011;58703;48.978;8.982;2023-03-05T04:08:46;23.10;;;7.67;;
71046;SDS011;58703;48.978;8.982;2023-03-05T04:11:12;20.23;;;6.60;;
71046;SDS011;58703;48.978;8.982;2023-03-05T04:13:38;15.23;;;6.47;;
71046;SDS011;58703;48.978;8.982;2023-03-05T04:16:04;22.77;;;7.53;;
71046;SDS011;58703;48.978;8.982;2023-03-05T04:18:30;20.08;;;7.07;;
71046;SDS011;58703;48.978;8.982;2023-03-05T04:20:55;24.10;;;7.13;;
71046;SDS011;58703;48.978;8.982;2023-03-05T04:23:21;20.13;;;6.40;;
71046;SDS011;58703;48.978;8.982;2023-03-05T04:25:46;17.27;;;6.83;;
71046;SDS011;58703;48.978;8.982;2023-03-05T04:28:12;21.08;;;7.00;;
71046;SDS011;58703;48.978;8.982;2023-03-05T04:30:38;25.47;;;6.63;;
71046;SDS011;58703;48.978;8.982;2023-03-05T04:33:03;22.50;;;7.38;;
71046;SDS011;58703;48.978;8.982;2023-03-05T04:35:29;17.93;;;6.50;;
71046;SDS011;58703;48.978;8.982;2023-03-05T04:37:54;22.43;;;7.63;;
71046;SDS011;58703;48.978;8.982;2023-03-05T04:40:20;22.45;;;7.25;;
71046;SDS011;58703;48.978;8.982;2023-03-05T04:42:47;20.37;;;6.67;;
71046;SDS011;58703;48.978;8.982;2023-03-05T04:45:12;18.80;;;6.53;;
71046;SDS011;58703;48.978;8.982;2023-03-05T04:47:38;23.30;;;7.77;;
71046;SDS011;58703;48.978;8.982;2023-03-05T04:50:04;20.80;;;6.60;;
71046;SDS011;58703;48.978;8.982;2023-03-05T04:52:31;21.83;;;6.30;;
71046;SDS011;58703;48.978;8.982;2023-03-05T04:54:56;19.93;;;7.07;;
71046;SDS011;58703;48.978;8.982;2023-03-05T04:57:22;21.40;;;6.47;;
71046;SDS011;58703;48.978;8.982;2023-03-05T04:59:47;19.67;;;6.35;;
71046;SDS011;58703;48.978;8.982;2023-03-05T05:02:13;22.53;;;7.00;;
71046;SDS011;58703;48.978;8.982;2023-03-05T05:04:38;19.57;;;6.17;;
71046;SDS011;58703;48.978;8.982;2023-03-05T05:07:04;23.63;;;7.00;;
71046;SDS011;58703;48.978;8.982;2023-03-05T05:09:31;19.05;;;6.65;;
71046;SDS011;58703;48.978;8.982;2023-03-05T05:11:57;19.23;;;7.67;;
71046;SDS011;58703;48.978;8.982;2023-03-05T05:14:22;22.88;;;7.28;;
71046;SDS011;58703;48.978;8.982;2023-03-05T05:16:48;21.97;;;7.00;;
71046;SDS011;58703;48.978;8.982;2023-03-05T05:19:13;21.70;;;6.80;;
71046;SDS011;58703;48.978;8.982;2023-03-05T05:21:39;19.27;;;6.87;;
71046;SDS011;58703;48.978;8.982;2023-03-05T05:24:05;20.50;;;7.30;;
71046;SDS011;58703;48.978;8.982;2023-03-05T05:26:30;20.63;;;6.57;;
71046;SDS011;58703;48.978;8.982;2023-03-05T05:28:56;20.27;;;7.50;;
71046;SDS011;58703;48.978;8.982;2023-03-05T05:31:22;21.90;;;7.00;;
71046;SDS011;58703;48.978;8.982;2023-03-05T05:33:47;25.13;;;7.30;;
71046;SDS011;58703;48.978;8.982;2023-03-05T05:36:14;20.40;;;6.73;;
71046;SDS011;58703;48.978;8.982;2023-03-05T05:38:41;22.52;;;7.15;;
71046;SDS011;58703;48.978;8.982;2023-03-05T05:41:11;21.07;;;6.93;;
71046;SDS011;58703;48.978;8.982;2023-03-05T05:43:38;19.38;;;7.57;;
71046;SDS011;58703;48.978;8.982;2023-03-05T05:46:06;21.33;;;7.47;;
71046;SDS011;58703;48.978;8.982;2023-03-05T05:48:34;21.00;;;6.60;;
71046;SDS011;58703;48.978;8.982;2023-03-05T05:51:04;21.67;;;6.80;;
71046;SDS011;58703;48.978;8.982;2023-03-05T05:53:33;23.00;;;7.35;;
71046;SDS011;58703;48.978;8.982;2023-03-05T05:55:59;21.63;;;7.18;;
71046;SDS011;58703;48.978;8.982;2023-03-05T05:58:25;19.10;;;7.10;;
71046;SDS011;58703;48.978;8.982;2023-03-05T06:00:50;24.25;;;7.40;;
71046;SDS011;58703;48.978;8.982;2023-03-05T06:03:16;20.20;;;7.10;;
71046;SDS011;58703;48.978;8.982;2023-03-05T06:05:41;22.67;;;8.13;;
71046;SDS011;58703;48.978;8.982;2023-03-05T06:08:07;23.73;;;6.90;;
71046;SDS011;58703;48.978;8.982;2023-03-05T06:10:33;21.15;;;7.30;;
71046;SDS011;58703;48.978;8.982;2023-03-05T06:12:59;18.27;;;6.33;;
71046;SDS011;58703;48.978;8.982;2023-03-05T06:15:24;19.87;;;6.87;;
71046;SDS011;58703;48.978;8.982;2023-03-05T06:17:50;22.70;;;7.72;;
71046;SDS011;58703;48.978;8.982;2023-03-05T06:20:17;21.70;;;7.17;;
71046;SDS011;58703;48.978;8.982;2023-03-05T06:22:42;25.88;;;8.02;;
71046;SDS011;58703;48.978;8.982;2023-03-05T06:25:08;24.27;;;7.83;;
71046;SDS011;58703;48.978;8.982;2023-03-05T06:27:34;21.95;;;7.47;;
71046;SDS011;58703;48.978;8.982;2023-03-05T06:30:01;22.27;;;6.93;;
71046;SDS011;58703;48.978;8.982;2023-03-05T06:32:28;24.63;;;7.38;;
71046;SDS011;58703;48.978;8.982;2023-03-05T06:34:53;24.60;;;7.23;;
71046;SDS011;58703;48.978;8.982;2023-03-05T06:37:19;21.13;;;6.70;;
71046;SDS011;58703;48.978;8.982;2023-03-05T06:39:44;22.45;;;7.55;;
71046;SDS011;58703;48.978;8.982;2023-03-05T06:42:10;21.60;;;7.70;;
71046;SDS011;58703;48.978;8.982;2023-03-05T06:44:39;15.97;;;7.07;;
71046;SDS011;58703;48.978;8.982;2023-03-05T06:47:05;21.88;;;7.28;;
71046;SDS011;58703;48.978;8.982;2023-03-05T06:49:33;26.95;;;7.85;;
71046;SDS011;58703;48.978;8.982;2023-03-05T06:51:59;23.27;;;7.47;;
71046;SDS011;58703;48.978;8.982;2023-03-05T06:54:26;22.48;;;8.25;;
71046;SDS011;58703;48.978;8.982;2023-03-05T06:56:51;20.90;;;7.65;;
71046;SDS011;58703;48.978;8.982;2023-03-05T06:59:17;26.97;;;8.87;;
71046;SDS011;58703;48.978;8.982;2023-03-05T07:01:43;24.70;;;8.25;;
71046;SDS011;58703;48.978;8.982;2023-03-05T07:04:10;27.58;;;7.85;;
71046;SDS011;58703;48.978;8.982;2023-03-05T07:06:37;21.97;;;7.67;;
71046;SDS011;58703;48.978;8.982;2023-03-05T07:09:04;26.30;;;8.68;;
71046;SDS011;58703;48.978;8.982;2023-03-05T07:11:31;27.95;;;9.48;;
71046;SDS011;58703;48.978;8.982;2023-03-05T07:13:57;22.30;;;8.07;;
71046;SDS011;58703;48.978;8.982;2023-03-05T07:16:24;22.30;;;8.30;;
71046;SDS011;58703;48.978;8.982;2023-03-05T07:18:51;32.53;;;9.63;;
71046;SDS011;58703;48.978;8.982;2023-03-05T07:21:18;33.10;;;11.00;;
71046;SDS011;58703;48.978;8.982;2023-03-05T07:23:46;27.70;;;8.50;;
71046;SDS011;58703;48.978;8.982;2023-03-05T07:26:12;29.60;;;8.43;;
71046;SDS011;58703;48.978;8.982;2023-03-05T07:28:37;22.80;;;8.10;;
71046;SDS011;58703;48.978;8.982;2023-03-05T07:31:04;22.90;;;7.83;;
71046;SDS011;58703;48.978;8.982;2023-03-05T07:33:31;24.90;;;8.18;;
71046;SDS011;58703;48.978;8.982;2023-03-05T07:35:58;24.80;;;7.60;;
71046;SDS011;58703;48.978;8.982;2023-03-05T07:38:24;26.13;;;8.00;;
71046;SDS011;58703;48.978;8.982;2023-03-05T07:40:50;23.52;;;7.80;;
71046;SDS011;58703;48.978;8.982;2023-03-05T07:43:16;22.33;;;8.27;;
71046;SDS011;58703;48.978;8.982;2023-03-05T07:45:43;26.15;;;8.82;;
71046;SDS011;58703;48.978;8.982;2023-03-05T07:48:17;24.25;;;7.70;;
71046;SDS011;58703;48.978;8.982;2023-03-05T07:50:45;22.88;;;7.97;;
71046;SDS011;58703;48.978;8.982;2023-03-05T07:53:11;24.58;;;8.38;;
71046;SDS011;58703;48.978;8.982;2023-03-05T07:55:42;24.97;;;8.00;;
71046;SDS011;58703;48.978;8.982;2023-03-05T07:58:12;24.65;;;7.85;;
71046;SDS011;58703;48.978;8.982;2023-03-05T08:00:38;29.85;;;9.20;;
71046;SDS011;58703;48.978;8.982;2023-03-05T08:03:05;28.17;;;8.33;;
71046;SDS011;58703;48.978;8.982;2023-03-05T08:05:31;27.75;;;8.88;;
71046;SDS011;58703;48.978;8.982;2023-03-05T08:07:57;32.42;;;10.93;;
71046;SDS011;58703;48.978;8.982;2023-03-05T08:10:23;25.85;;;8.73;;
71046;SDS011;58703;48.978;8.982;2023-03-05T08:12:49;31.90;;;12.18;;
71046;SDS011;58703;48.978;8.982;2023-03-05T08:15:14;31.20;;;10.20;;
71046;SDS011;58703;48.978;8.982;2023-03-05T08:17:40;26.07;;;10.10;;
71046;SDS011;58703;48.978;8.982;2023-03-05T08:20:05;28.08;;;9.55;;
71046;SDS011;58703;48.978;8.982;2023-03-05T08:22:36;24.23;;;8.23;;
71046;SDS011;58703;48.978;8.982;2023-03-05T08:25:02;24.33;;;8.35;;
71046;SDS011;58703;48.978;8.982;2023-03-05T08:27:33;23.70;;;9.32;;
71046;SDS011;58703;48.978;8.982;2023-03-05T08:30:05;29.98;;;12.65;;
71046;SDS011;58703;48.978;8.982;2023-03-05T08:32:31;24.00;;;8.82;;
71046;SDS011;58703;48.978;8.982;2023-03-05T08:34:57;27.87;;;9.00;;
71046;SDS011;58703;48.978;8.982;2023-03-05T08:37:24;27.13;;;9.97;;
71046;SDS011;58703;48.978;8.982;2023-03-05T08:39:51;23.67;;;9.27;;
71046;SDS011;58703;48.978;8.982;2023-03-05T08:42:16;22.00;;;9.27;;
71046;SDS011;58703;48.978;8.982;2023-03-05T08:44:42;28.40;;;9.13;;
71046;SDS011;58703;48.978;8.982;2023-03-05T08:47:07;23.33;;;8.90;;
71046;SDS011;58703;48.978;8.982;2023-03-05T08:49:33;22.27;;;7.93;;
71046;SDS011;58703;48.978;8.982;2023-03-05T08:51:58;24.13;;;8.03;;
71046;SDS011;58703;48.978;8.982;2023-03-05T08:54:23;22.47;;;8.60;;
71046;SDS011;58703;48.978;8.982;2023-03-05T08:56:49;25.45;;;9.07;;
71046;SDS011;58703;48.978;8.982;2023-03-05T08:59:16;25.37;;;8.90;;
71046;SDS011;58703;48.978;8.982;2023-03-05T09:01:41;26.08;;;9.85;;
71046;SDS011;58703;48.978;8.982;2023-03-05T09:04:08;54.97;;;21.40;;
71046;SDS011;58703;48.978;8.982;2023-03-05T09:06:35;64.72;;;24.77;;
71046;SDS011;58703;48.978;8.982;2023-03-05T09:09:05;41.30;;;15.82;;
71046;SDS011;58703;48.978;8.982;2023-03-05T09:11:34;53.58;;;23.65;;
71046;SDS011;58703;48.978;8.982;2023-03-05T09:14:04;45.23;;;18.50;;
71046;SDS011;58703;48.978;8.982;2023-03-05T09:16:31;35.25;;;13.65;;
71046;SDS011;58703;48.978;8.982;2023-03-05T09:18:58;34.28;;;16.35;;
71046;SDS011;58703;48.978;8.982;2023-03-05T09:21:24;28.33;;;11.57;;
71046;SDS011;58703;48.978;8.982;2023-03-05T09:23:51;26.35;;;12.68;;
71046;SDS011;58703;48.978;8.982;2023-03-05T09:26:17;26.87;;;11.77;;
71046;SDS011;58703;48.978;8.982;2023-03-05T09:28:44;34.53;;;14.63;;
71046;SDS011;58703;48.978;8.982;2023-03-05T09:31:10;31.83;;;13.77;;
71046;SDS011;58703;48.978;8.982;2023-03-05T09:33:36;27.07;;;9.83;;
71046;SDS011;58703;48.978;8.982;2023-03-05T09:36:02;29.20;;;14.27;;
71046;SDS011;58703;48.978;8.982;2023-03-05T09:38:29;29.58;;;12.80;;
71046;SDS011;58703;48.978;8.982;2023-03-05T09:41:00;33.22;;;12.48;;
71046;SDS011;58703;48.978;8.982;2023-03-05T09:49:23;28.58;;;12.27;;
71046;SDS011;58703;48.978;8.982;2023-03-05T09:52:12;38.17;;;14.75;;
71046;SDS011;58703;48.978;8.982;2023-03-05T09:54:44;23.33;;;9.85;;
71046;SDS011;58703;48.978;8.982;2023-03-05T09:57:14;59.10;;;30.27;;
71046;SDS011;58703;48.978;8.982;2023-03-05T09:59:45;24.63;;;9.77;;
71046;SDS011;58703;48.978;8.982;2023-03-05T10:02:17;24.63;;;9.38;;
71046;SDS011;58703;48.978;8.982;2023-03-05T10:07:37;43.05;;;28.25;;
71046;SDS011;58703;48.978;8.982;2023-03-05T10:10:09;26.42;;;11.63;;
71046;SDS011;58703;48.978;8.982;2023-03-05T10:12:41;38.13;;;16.17;;
71046;SDS011;58703;48.978;8.982;2023-03-05T10:15:35;19.00;;;9.23;;
71046;SDS011;58703;48.978;8.982;2023-03-05T10:23:54;28.05;;;13.95;;
71046;SDS011;58703;48.978;8.982;2023-03-05T10:26:49;44.30;;;20.00;;
71046;SDS011;58703;48.978;8.982;2023-03-05T10:29:45;27.42;;;11.98;;
71046;SDS011;58703;48.978;8.982;2023-03-05T10:35:15;25.70;;;11.73;;
71046;SDS011;58703;48.978;8.982;2023-03-05T10:45:38;24.60;;;12.03;;
71046;SDS011;58703;48.978;8.982;2023-03-05T10:48:26;31.40;;;14.20;;
71046;SDS011;58703;48.978;8.982;2023-03-05T10:54:32;24.15;;;10.50;;
71046;SDS011;58703;48.978;8.982;2023-03-05T11:05:33;26.98;;;13.15;;
71046;SDS011;58703;48.978;8.982;2023-03-05T11:10:46;25.77;;;11.13;;
71046;SDS011;58703;48.978;8.982;2023-03-05T11:13:25;32.67;;;18.48;;
71046;SDS011;58703;48.978;8.982;2023-03-05T11:16:01;21.70;;;9.93;;
71046;SDS011;58703;48.978;8.982;2023-03-05T11:18:30;23.10;;;8.97;;
71046;SDS011;58703;48.978;8.982;2023-03-05T11:21:16;21.85;;;11.10;;
71046;SDS011;58703;48.978;8.982;2023-03-05T11:24:12;22.00;;;9.90;;
71046;SDS011;58703;48.978;8.982;2023-03-05T11:26:46;14.45;;;7.97;;
71046;SDS011;58703;48.978;8.982;2023-03-05T11:29:15;15.25;;;8.00;;
71046;SDS011;58703;48.978;8.982;2023-03-05T11:31:44;17.17;;;10.20;;
71046;SDS011;58703;48.978;8.982;2023-03-05T11:36:43;16.10;;;9.07;;
71046;SDS011;58703;48.978;8.982;2023-03-05T11:39:28;15.10;;;8.65;;
71046;SDS011;58703;48.978;8.982;2023-03-05T11:41:58;16.42;;;8.20;;
71046;SDS011;58703;48.978;8.982;2023-03-05T11:44:53;15.18;;;7.60;;
71046;SDS011;58703;48.978;8.982;2023-03-05T11:50:28;12.20;;;7.70;;
71046;SDS011;58703;48.978;8.982;2023-03-05T11:53:01;13.95;;;6.90;;
71046;SDS011;58703;48.978;8.982;2023-03-05T11:58:40;15.95;;;7.85;;
71046;SDS011;58703;48.978;8.982;2023-03-05T12:01:22;13.90;;;7.78;;
71046;SDS011;58703;48.978;8.982;2023-03-05T12:03:49;16.47;;;7.53;;
71046;SDS011;58703;48.978;8.982;2023-03-05T12:06:36;12.23;;;7.45;;
71046;SDS011;58703;48.978;8.982;2023-03-05T12:15:24;16.05;;;7.95;;
71046;SDS011;58703;48.978;8.982;2023-03-05T12:18:22;14.10;;;8.73;;
71046;SDS011;58703;48.978;8.982;2023-03-05T12:21:05;13.70;;;7.95;;
71046;SDS011;58703;48.978;8.982;2023-03-05T12:23:49;13.82;;;7.65;;
71046;SDS011;58703;48.978;8.982;2023-03-05T12:35:01;14.40;;;8.63;;
71046;SDS011;58703;48.978;8.982;2023-03-05T12:37:56;16.70;;;8.48;;
71046;SDS011;58703;48.978;8.982;2023-03-05T12:40:21;21.05;;;8.50;;
71046;SDS011;58703;48.978;8.982;2023-03-05T12:52:51;19.23;;;8.70;;
71046;SDS011;58703;48.978;8.982;2023-03-05T12:55:27;17.65;;;8.90;;
71046;SDS011;58703;48.978;8.982;2023-03-05T12:57:59;20.03;;;10.00;;
71046;SDS011;58703;48.978;8.982;2023-03-05T13:03:10;17.25;;;8.40;;
71046;SDS011;58703;48.978;8.982;2023-03-05T13:05:46;13.45;;;7.28;;
71046;SDS011;58703;48.978;8.982;2023-03-05T13:08:21;14.68;;;7.30;;
71046;SDS011;58703;48.978;8.982;2023-03-05T13:11:07;17.87;;;8.13;;
71046;SDS011;58703;48.978;8.982;2023-03-05T13:13:43;17.42;;;7.85;;
71046;SDS011;58703;48.978;8.982;2023-03-05T13:16:18;12.98;;;7.07;;
71046;SDS011;58703;48.978;8.982;2023-03-05T13:18:53;14.13;;;6.50;;
71046;SDS011;58703;48.978;8.982;2023-03-05T13:21:27;16.77;;;6.65;;
71046;SDS011;58703;48.978;8.982;2023-03-05T13:23:55;14.77;;;6.93;;
71046;SDS011;58703;48.978;8.982;2023-03-05T13:26:24;14.82;;;6.40;;
71046;SDS011;58703;48.978;8.982;2023-03-05T13:29:13;16.52;;;6.93;;
71046;SDS011;58703;48.978;8.982;2023-03-05T13:32:21;15.32;;;7.03;;
71046;SDS011;58703;48.978;8.982;2023-03-05T13:34:43;14.05;;;6.50;;
71046;SDS011;58703;48.978;8.982;2023-03-05T13:37:18;15.43;;;6.40;;
71046;SDS011;58703;48.978;8.982;2023-03-05T13:39:47;20.33;;;10.63;;
71046;SDS011;58703;48.978;8.982;2023-03-05T13:42:16;16.48;;;9.13;;
71046;SDS011;58703;48.978;8.982;2023-03-05T13:44:52;18.42;;;7.32;;
71046;SDS011;58703;48.978;8.982;2023-03-05T13:47:22;16.30;;;6.63;;
71046;SDS011;58703;48.978;8.982;2023-03-05T13:49:58;14.50;;;7.60;;
71046;SDS011;58703;48.978;8.982;2023-03-05T13:52:35;15.43;;;6.22;;
71046;SDS011;58703;48.978;8.982;2023-03-05T13:55:03;11.90;;;6.50;;
71046;SDS011;58703;48.978;8.982;2023-03-05T13:57:41;14.98;;;6.85;;
71046;SDS011;58703;48.978;8.982;2023-03-05T14:00:30;16.92;;;8.50;;
71046;SDS011;58703;48.978;8.982;2023-03-05T14:03:13;13.68;;;6.70;;
71046;SDS011;58703;48.978;8.982;2023-03-05T14:05:46;14.10;;;6.47;;
71046;SDS011;58703;48.978;8.982;2023-03-05T14:08:18;16.83;;;6.43;;
71046;SDS011;58703;48.978;8.982;2023-03-05T14:10:45;15.00;;;7.68;;
71046;SDS011;58703;48.978;8.982;2023-03-05T14:13:18;13.55;;;6.22;;
71046;SDS011;58703;48.978;8.982;2023-03-05T14:18:32;14.27;;;6.43;;
71046;SDS011;58703;48.978;8.982;2023-03-05T14:21:08;12.18;;;6.93;;
71046;SDS011;58703;48.978;8.982;2023-03-05T14:29:01;15.83;;;7.73;;
71046;SDS011;58703;48.978;8.982;2023-03-05T14:36:53;14.55;;;6.50;;
71046;SDS011;58703;48.978;8.982;2023-03-05T14:39:26;13.05;;;6.80;;
71046;SDS011;58703;48.978;8.982;2023-03-05T14:41:53;12.63;;;6.70;;
71046;SDS011;58703;48.978;8.982;2023-03-05T14:44:19;14.75;;;6.03;;
71046;SDS011;58703;48.978;8.982;2023-03-05T14:46:49;12.70;;;5.65;;
71046;SDS011;58703;48.978;8.982;2023-03-05T14:49:15;12.90;;;6.20;;
71046;SDS011;58703;48.978;8.982;2023-03-05T14:51:42;12.65;;;5.53;;
71046;SDS011;58703;48.978;8.982;2023-03-05T14:54:22;11.15;;;5.43;;
71046;SDS011;58703;48.978;8.982;2023-03-05T14:56:50;12.60;;;5.90;;
71046;SDS011;58703;48.978;8.982;2023-03-05T14:59:17;11.33;;;5.13;;
71046;SDS011;58703;48.978;8.982;2023-03-05T15:01:43;10.45;;;5.05;;
71046;SDS011;58703;48.978;8.982;2023-03-05T15:04:09;13.20;;;5.88;;
71046;SDS011;58703;48.978;8.982;2023-03-05T15:06:36;12.27;;;5.60;;
71046;SDS011;58703;48.978;8.982;2023-03-05T15:09:04;10.60;;;5.57;;
71046;SDS011;58703;48.978;8.982;2023-03-05T15:11:31;12.68;;;6.53;;
71046;SDS011;58703;48.978;8.982;2023-03-05T15:13:58;11.93;;;5.85;;
71046;SDS011;58703;48.978;8.982;2023-03-05T15:16:23;13.87;;;6.03;;
71046;SDS011;58703;48.978;8.982;2023-03-05T15:18:49;10.82;;;5.70;;
71046;SDS011;58703;48.978;8.982;2023-03-05T15:21:15;14.00;;;7.53;;
71046;SDS011;58703;48.978;8.982;2023-03-05T15:23:40;13.82;;;5.88;;
71046;SDS011;58703;48.978;8.982;2023-03-05T15:26:10;28.00;;;12.60;;
71046;SDS011;58703;48.978;8.982;2023-03-05T15:28:37;25.33;;;11.40;;
71046;SDS011;58703;48.978;8.982;2023-03-05T15:31:04;14.80;;;6.53;;
71046;SDS011;58703;48.978;8.982;2023-03-05T15:33:31;15.40;;;7.53;;
71046;SDS011;58703;48.978;8.982;2023-03-05T15:35:57;14.52;;;7.07;;
71046;SDS011;58703;48.978;8.982;2023-03-05T15:38:23;19.40;;;8.10;;
71046;SDS011;58703;48.978;8.982;2023-03-05T15:40:49;28.20;;;12.38;;
71046;SDS011;58703;48.978;8.982;2023-03-05T15:43:15;18.13;;;7.65;;
71046;SDS011;58703;48.978;8.982;2023-03-05T15:45:42;16.23;;;7.68;;
71046;SDS011;58703;48.978;8.982;2023-03-05T15:48:07;13.45;;;6.57;;
71046;SDS011;58703;48.978;8.982;2023-03-05T15:50:33;15.57;;;7.60;;
71046;SDS011;58703;48.978;8.982;2023-03-05T15:52:59;21.13;;;7.80;;
71046;SDS011;58703;48.978;8.982;2023-03-05T15:55:24;17.33;;;8.03;;
71046;SDS011;58703;48.978;8.982;2023-03-05T15:57:51;19.60;;;9.07;;
71046;SDS011;58703;48.978;8.982;2023-03-05T16:00:18;23.02;;;9.02;;
71046;SDS011;58703;48.978;8.982;2023-03-05T16:02:47;18.27;;;8.25;;
71046;SDS011;58703;48.978;8.982;2023-03-05T16:05:13;18.10;;;8.73;;
71046;SDS011;58703;48.978;8.982;2023-03-05T16:07:39;19.65;;;8.27;;
71046;SDS011;58703;48.978;8.982;2023-03-05T16:10:10;22.47;;;8.23;;
71046;SDS011;58703;48.978;8.982;2023-03-05T16:12:37;19.55;;;8.73;;
71046;SDS011;58703;48.978;8.982;2023-03-05T16:15:10;21.35;;;9.82;;
71046;SDS011;58703;48.978;8.982;2023-03-05T16:17:39;28.55;;;11.07;;